Česky Dansk Deutsch English Español Suomi Français Magyar Italiano Nederlands norsk Polski Português svenska Türkçe

 

Het Weer

Wroclaw Ii (Polen)

06:00, 21 augustus 2016 (GMT)

NWNNE
WE
SWSSE
Home            
Wroclaw Ii Zielona Gora Liberec Poznan Preschen Katowice Ostrava / Mosnov Cottbus Flugplatz Holesov Praha / Ruzyne Brno / Turany Dresden-Klotzsche Kunovice Krakow Dolny Hricov Holzdorf Berlin-Schoenefeld Piestany Berlin-Tempelhof Piestany Prievidza Berlin-Tegel Karlovy Vary

Om een weerknop op uw website of weblog te plaatsen, copieer onderstaande code en plak die in uw pagina. In het eerste vakje staat HTML-code, in het tweede vakje UBB-code.


Add to Google

Details

Wind speed:2 bf, 6 kn, 3.1 m/s, 6.9 miles/h, 11.1 km/h
Wind direction:W, 280°
Visibility: 4000 m, 4.0 km, 13123 ft, 2.5 miles
Clouds:Aufgelockert bewölkt at 300 ft, 91 m
Durchbrochene Bewölkung at 1700 ft, 518 m
Het Weer:moderate rain
Temperature:18°C, 64°F
Dew-point:17°C, 63°F
Atmospheric pressure:1016 hPa, 762.1 mmHg, 30.00 inHg, 1.003 atm
Relative humidity:93.9 %
METAR:EPWR 210600Z 28006KT 4000 RA SCT003 BKN017 18/17 Q1016

Snelkoppelingen

Actuele weersinformatie van de hele wereld. Voeg locaties toe met het plus (+) symbool. Deze snelkoppelingen kunnen worden toegevoegd aan Google.

Lid van de Technetium groep

website free tracking
StatCounter NetStat W3C Validator

05-10-2022 08:37:36
astro.technetium.be money.technetium.be phote.technetium.be tafeltennistafel.technetium.be www.ligfiets.net